Terminal Aerodrome Forecast
Issued by NWS South Bend, IN

Home | Current Version | Previous Version | Text Only | Print | Product List | Glossary Off
Versions: 1 2 3 4 5 6 7 8 9 10 11 12 13 14

000
FTUS43 KIWX 220500
TAFSBN
TAF
KSBN 220520Z 2206/2306 26008KT P6SM SKC
     FM221000 28012G20KT P6SM BKN030
     FM221500 29019G30KT P6SM BKN050
     FM230000 29010KT P6SM SCT060=

USA.gov is the U.S. government's official web portal to all federal, state and local government web resources and services.